createdAt,value
2023-03-03T00:01:37.384Z,-2.75
2023-03-03T00:04:22.531Z,-2.65
2023-03-03T00:07:07.954Z,-2.68
2023-03-03T00:09:53.563Z,-2.76
2023-03-03T00:12:49.447Z,-2.77
2023-03-03T00:15:36.186Z,-2.88
2023-03-03T00:18:33.596Z,-2.76
2023-03-03T00:21:28.382Z,-2.76
2023-03-03T00:24:13.960Z,-2.68
2023-03-03T00:27:09.243Z,-2.58
2023-03-03T00:29:57.186Z,-2.80
2023-03-03T00:32:46.285Z,-3.02
2023-03-03T00:35:33.398Z,-2.76
2023-03-03T00:38:18.821Z,-2.67
2023-03-03T00:41:16.645Z,-2.58
2023-03-03T00:44:28.475Z,-2.71
2023-03-03T00:47:31.413Z,-2.45
2023-03-03T00:50:29.780Z,-2.44
2023-03-03T00:53:17.376Z,-2.61
2023-03-03T00:56:03.063Z,-2.62
2023-03-03T00:58:48.429Z,-2.56
2023-03-03T01:01:36.633Z,-2.67
2023-03-03T01:04:21.759Z,-2.69
2023-03-03T01:07:07.057Z,-2.89
2023-03-03T01:09:52.695Z,-3.06
2023-03-03T01:12:39.845Z,-3.16
2023-03-03T01:15:25.363Z,-3.34
2023-03-03T01:18:12.096Z,-2.95
2023-03-03T01:20:57.834Z,-2.98
2023-03-03T01:23:43.027Z,-2.61
2023-03-03T01:26:28.659Z,-2.75
2023-03-03T01:29:13.790Z,-2.35
2023-03-03T01:31:59.512Z,-2.23
2023-03-03T01:34:44.986Z,-2.74
2023-03-03T01:37:30.386Z,-2.64
2023-03-03T01:40:25.094Z,-2.78
2023-03-03T01:43:15.126Z,-2.98
2023-03-03T01:46:00.735Z,-3.10
2023-03-03T01:48:46.905Z,-3.27
2023-03-03T01:52:02.705Z,-3.25
2023-03-03T01:54:53.717Z,-3.13
2023-03-03T01:57:44.878Z,-3.15
2023-03-03T02:00:31.690Z,-3.22
2023-03-03T02:03:19.931Z,-3.20
2023-03-03T02:06:10.004Z,-3.06
2023-03-03T02:09:02.230Z,-3.33
2023-03-03T02:11:51.125Z,-3.33
2023-03-03T02:14:37.220Z,-3.38
2023-03-03T02:17:22.889Z,-3.22
2023-03-03T02:20:45.968Z,-3.05
2023-03-03T02:23:45.431Z,-3.05
2023-03-03T02:26:34.334Z,-3.05
2023-03-03T02:29:23.884Z,-2.96
2023-03-03T02:32:09.177Z,-3.04
2023-03-03T02:34:54.498Z,-3.00
2023-03-03T02:37:40.099Z,-3.34
2023-03-03T02:40:28.994Z,-3.16
2023-03-03T02:43:17.513Z,-3.43
2023-03-03T02:46:03.423Z,-3.09
2023-03-03T02:48:49.354Z,-3.46
2023-03-03T02:51:35.271Z,-3.22
2023-03-03T02:54:22.837Z,-3.10
2023-03-03T02:57:08.457Z,-3.37
2023-03-03T02:59:53.672Z,-3.40
2023-03-03T03:02:39.211Z,-3.39
2023-03-03T03:05:25.178Z,-3.90
2023-03-03T03:08:10.458Z,-3.60
2023-03-03T03:10:56.189Z,-3.42
2023-03-03T03:13:43.770Z,-3.59
2023-03-03T03:16:29.353Z,-3.56
2023-03-03T03:19:14.749Z,-3.59
2023-03-03T03:22:01.778Z,-3.73
2023-03-03T03:24:48.337Z,-3.70
2023-03-03T03:27:34.423Z,-4.04
2023-03-03T03:30:19.894Z,-3.90
2023-03-03T03:33:06.524Z,-3.60
2023-03-03T03:35:52.757Z,-3.89
2023-03-03T03:38:38.617Z,-3.57
2023-03-03T03:41:25.659Z,-3.46
2023-03-03T03:44:11.251Z,-3.57
2023-03-03T03:46:56.757Z,-3.53
2023-03-03T03:49:43.229Z,-3.26
2023-03-03T03:52:28.658Z,-3.13
2023-03-03T03:55:14.200Z,-3.34
2023-03-03T03:58:00.554Z,-3.20
2023-03-03T04:00:46.484Z,-3.32
2023-03-03T04:03:32.764Z,-3.58
2023-03-03T04:06:18.709Z,-3.27
2023-03-03T04:09:03.979Z,-3.33
2023-03-03T04:11:49.818Z,-3.24
2023-03-03T04:14:36.290Z,-3.26
2023-03-03T04:17:23.402Z,-3.32
2023-03-03T04:20:12.899Z,-3.19
2023-03-03T04:22:58.111Z,-3.09
2023-03-03T04:25:47.382Z,-2.92
2023-03-03T04:28:33.659Z,-3.14
2023-03-03T04:31:19.414Z,-3.23
2023-03-03T04:34:05.586Z,-3.38
2023-03-03T04:36:51.742Z,-3.13
2023-03-03T04:39:37.158Z,-3.30
2023-03-03T04:42:22.369Z,-3.22
2023-03-03T04:45:08.428Z,-3.22
2023-03-03T04:47:54.353Z,-3.25
2023-03-03T04:50:42.516Z,-3.37
2023-03-03T04:53:28.119Z,-3.38
2023-03-03T04:56:13.672Z,-3.23
2023-03-03T04:58:58.898Z,-3.22
2023-03-03T05:01:44.390Z,-3.15
2023-03-03T05:04:29.616Z,-3.27
2023-03-03T05:07:14.779Z,-3.24
2023-03-03T05:10:00.061Z,-3.23
2023-03-03T05:12:45.199Z,-3.45
2023-03-03T05:15:33.820Z,-3.19
2023-03-03T05:18:19.875Z,-3.12
2023-03-03T05:21:05.918Z,-3.04
2023-03-03T05:23:51.610Z,-3.07
2023-03-03T05:26:37.396Z,-3.07
2023-03-03T05:29:23.105Z,-2.96
2023-03-03T05:32:08.573Z,-3.23
2023-03-03T05:34:53.935Z,-3.52
2023-03-03T05:37:39.150Z,-3.30
2023-03-03T05:40:27.934Z,-3.34
2023-03-03T05:43:13.308Z,-3.33
2023-03-03T05:45:58.789Z,-3.53
2023-03-03T05:48:44.542Z,-3.97
2023-03-03T05:51:30.482Z,-3.48
2023-03-03T05:54:15.921Z,-3.56
2023-03-03T05:57:01.193Z,-3.58
2023-03-03T05:59:46.633Z,-3.48
2023-03-03T06:02:32.200Z,-3.50
2023-03-03T06:05:17.961Z,-3.52
2023-03-03T06:08:03.958Z,-3.67
2023-03-03T06:10:49.529Z,-3.91
2023-03-03T06:13:35.132Z,-3.46
2023-03-03T06:16:20.706Z,-3.36
2023-03-03T06:19:06.333Z,-3.40
2023-03-03T06:21:51.727Z,-3.55
2023-03-03T06:24:37.058Z,-3.36
2023-03-03T06:27:22.594Z,-3.33
2023-03-03T06:30:08.532Z,-3.49
2023-03-03T06:32:54.719Z,-3.56
2023-03-03T06:35:39.980Z,-3.47
2023-03-03T06:38:26.905Z,-3.79
2023-03-03T06:41:12.126Z,-3.56
2023-03-03T06:43:57.915Z,-3.51
2023-03-03T06:46:43.102Z,-3.50
2023-03-03T06:49:29.043Z,-3.75
2023-03-03T06:52:26.103Z,-3.65
2023-03-03T06:55:15.365Z,-3.54
2023-03-03T06:58:01.079Z,-3.64
2023-03-03T07:00:55.460Z,-3.56
2023-03-03T07:03:40.932Z,-3.55
2023-03-03T07:06:26.910Z,-3.52
2023-03-03T07:09:37.726Z,-3.36
2023-03-03T07:12:26.611Z,-3.79
2023-03-03T07:15:24.477Z,-3.36
2023-03-03T07:18:59.143Z,-3.78
2023-03-03T07:21:44.294Z,-3.69
2023-03-03T07:24:31.380Z,-3.64
2023-03-03T07:27:23.746Z,-3.72
2023-03-03T07:30:12.431Z,-3.73
2023-03-03T07:32:59.271Z,-3.88
2023-03-03T07:35:44.920Z,-4.20
2023-03-03T07:38:37.211Z,-3.74
2023-03-03T07:41:22.630Z,-3.87
2023-03-03T07:44:21.452Z,-3.81
2023-03-03T07:47:20.159Z,-3.82
2023-03-03T07:50:24.045Z,-3.76
2023-03-03T07:53:30.755Z,-3.83
2023-03-03T07:56:31.050Z,-3.63
2023-03-03T07:59:25.709Z,-3.80
2023-03-03T08:02:42.156Z,-3.80
2023-03-03T08:05:30.601Z,-3.96
2023-03-03T08:08:34.800Z,-4.03
2023-03-03T08:11:20.272Z,-4.00
2023-03-03T08:14:11.651Z,-3.87
2023-03-03T08:17:00.419Z,-3.92
2023-03-03T08:19:46.666Z,-3.97
2023-03-03T08:22:34.790Z,-3.85
2023-03-03T08:25:19.978Z,-3.66
2023-03-03T08:28:05.273Z,-3.75
2023-03-03T08:30:50.705Z,-3.60
2023-03-03T08:33:36.495Z,-3.58
2023-03-03T08:36:22.117Z,-3.76
2023-03-03T08:39:07.518Z,-3.82
2023-03-03T08:41:52.680Z,-3.82
2023-03-03T08:44:38.242Z,-3.79
2023-03-03T08:47:23.790Z,-4.19
2023-03-03T08:50:09.622Z,-3.77
2023-03-03T08:52:55.771Z,-3.68
2023-03-03T08:55:42.107Z,-4.11
2023-03-03T08:58:35.220Z,-3.67
2023-03-03T09:01:21.562Z,-3.69
2023-03-03T09:04:06.780Z,-3.73
2023-03-03T09:06:52.501Z,-3.76
2023-03-03T09:09:37.912Z,-3.93
2023-03-03T09:12:44.666Z,-3.72
2023-03-03T09:15:32.275Z,-3.61
2023-03-03T09:18:19.575Z,-3.59
2023-03-03T09:21:37.302Z,-3.91
2023-03-03T09:24:28.935Z,-3.88
2023-03-03T09:27:22.761Z,-3.79
2023-03-03T09:30:36.905Z,-3.62
2023-03-03T09:33:42.855Z,-3.62
2023-03-03T09:36:35.138Z,-3.65
2023-03-03T09:39:25.637Z,-3.61
2023-03-03T09:42:26.402Z,-3.62
2023-03-03T09:45:36.287Z,-3.58
2023-03-03T09:48:48.177Z,-3.37
2023-03-03T09:51:41.359Z,-3.54
2023-03-03T09:54:45.622Z,-3.24
2023-03-03T09:58:15.706Z,-3.03
2023-03-03T10:01:51.383Z,-2.93
2023-03-03T10:04:55.404Z,-3.06
2023-03-03T10:07:49.609Z,-3.32
2023-03-03T10:10:34.766Z,-3.10
2023-03-03T10:14:02.046Z,-3.02
2023-03-03T10:16:59.162Z,-3.11
2023-03-03T10:20:06.209Z,-3.16
2023-03-03T10:23:01.549Z,-3.25
2023-03-03T10:26:10.471Z,-2.93
2023-03-03T10:29:08.661Z,-2.71
2023-03-03T10:32:18.612Z,-2.81
2023-03-03T10:35:07.115Z,-2.83
2023-03-03T10:38:20.039Z,-2.72
2023-03-03T10:41:36.303Z,-2.74
2023-03-03T10:44:49.402Z,-2.75
2023-03-03T10:48:01.666Z,-2.55
2023-03-03T10:51:05.238Z,-2.37
2023-03-03T10:54:28.066Z,-2.03
2023-03-03T10:57:37.614Z,-2.29
2023-03-03T11:00:48.622Z,-2.14
2023-03-03T11:03:43.124Z,-2.08
2023-03-03T11:06:42.235Z,-2.04
2023-03-03T11:09:33.607Z,-2.14
2023-03-03T11:12:31.111Z,-2.20
2023-03-03T11:15:32.186Z,-2.05
2023-03-03T11:18:45.642Z,-2.18
2023-03-03T11:21:49.312Z,-1.96
2023-03-03T11:24:59.038Z,-1.84
2023-03-03T11:28:05.983Z,-1.92
2023-03-03T11:31:03.871Z,-1.85
2023-03-03T11:34:03.695Z,-2.01
2023-03-03T11:36:55.501Z,-1.97
2023-03-03T11:39:43.164Z,-2.04
2023-03-03T11:42:39.374Z,-2.32
2023-03-03T11:45:34.313Z,-2.34
2023-03-03T11:48:30.458Z,-1.88
2023-03-03T11:51:23.670Z,-2.09
2023-03-03T11:54:25.575Z,-1.62
2023-03-03T11:57:29.863Z,-1.40
2023-03-03T12:00:58.314Z,-1.68
2023-03-03T12:03:57.350Z,-1.31
2023-03-03T12:07:12.952Z,-1.24
2023-03-03T12:10:21.803Z,-1.24
2023-03-03T12:13:50.746Z,-1.14
2023-03-03T12:16:56.663Z,-0.96
2023-03-03T12:19:50.979Z,-1.11
2023-03-03T12:23:20.659Z,-0.95
2023-03-03T12:26:25.710Z,-0.86
2023-03-03T12:29:25.656Z,-0.93
2023-03-03T12:32:23.187Z,-0.31
2023-03-03T12:35:25.167Z,-0.34
2023-03-03T12:38:32.089Z,-0.64
2023-03-03T12:41:30.364Z,-0.49
2023-03-03T12:44:30.745Z,-0.56
2023-03-03T12:47:24.688Z,-0.97
2023-03-03T12:50:10.044Z,-0.80
2023-03-03T12:53:17.791Z,-0.78
2023-03-03T12:56:08.632Z,-0.42
2023-03-03T12:59:18.265Z,-0.14
2023-03-03T13:02:31.966Z,-0.34
2023-03-03T13:05:31.508Z,-0.73
2023-03-03T13:08:41.192Z,-0.89
2023-03-03T13:11:55.799Z,-0.45
2023-03-03T13:15:19.318Z,-0.48
2023-03-03T13:18:16.659Z,-0.57
2023-03-03T13:21:20.506Z,-0.30
2023-03-03T13:24:15.480Z,-0.18
2023-03-03T13:27:09.970Z,-0.22
2023-03-03T13:30:16.647Z,-0.38
2023-03-03T13:33:26.252Z,-0.71
2023-03-03T13:36:14.861Z,-0.40
2023-03-03T13:39:18.014Z,-0.51
2023-03-03T13:42:10.454Z,-0.78
2023-03-03T13:44:56.597Z,-1.16
2023-03-03T13:48:14.191Z,-1.11
2023-03-03T13:51:06.467Z,-0.94
2023-03-03T13:54:09.570Z,-0.93
2023-03-03T13:57:13.142Z,-1.10
2023-03-03T14:00:26.108Z,-0.94
2023-03-03T14:03:35.521Z,-0.77
2023-03-03T14:06:26.792Z,-1.07
2023-03-03T14:09:55.596Z,-0.90
2023-03-03T14:12:44.644Z,-0.94
2023-03-03T14:15:58.346Z,-0.83
2023-03-03T14:18:56.966Z,-0.86
2023-03-03T14:22:14.186Z,-1.02
2023-03-03T14:25:08.221Z,-0.89
2023-03-03T14:28:04.575Z,-0.71
2023-03-03T14:30:55.160Z,-0.69
2023-03-03T14:33:45.674Z,-0.36
2023-03-03T14:36:35.940Z,-0.49
2023-03-03T14:39:38.949Z,-0.27
2023-03-03T14:42:35.732Z,-0.63
2023-03-03T14:45:41.166Z,-0.57
2023-03-03T14:48:27.525Z,-0.93
2023-03-03T14:51:25.852Z,-1.20
2023-03-03T14:54:18.910Z,-1.24
2023-03-03T14:57:12.219Z,-2.43
2023-03-03T15:00:13.932Z,-1.61
2023-03-03T15:03:04.407Z,-1.49
2023-03-03T15:05:56.912Z,-1.33
2023-03-03T15:08:42.801Z,-1.63
2023-03-03T15:11:33.385Z,-1.55
2023-03-03T15:14:21.059Z,-1.50
2023-03-03T15:17:23.990Z,-1.87
2023-03-03T15:20:35.802Z,-1.34
2023-03-03T15:23:43.524Z,-1.15
2023-03-03T15:26:47.994Z,-1.40
2023-03-03T15:29:38.225Z,-1.36
2023-03-03T15:32:39.571Z,-1.21
2023-03-03T15:35:39.806Z,-1.20
2023-03-03T15:38:48.439Z,-1.26
2023-03-03T15:42:04.748Z,-1.60
2023-03-03T15:45:22.962Z,-1.55
2023-03-03T15:48:23.634Z,-1.46
2023-03-03T15:51:24.099Z,-1.54
2023-03-03T15:54:49.210Z,-1.39
2023-03-03T15:58:07.313Z,-1.40
2023-03-03T16:01:11.612Z,-1.42
2023-03-03T16:03:56.912Z,-1.75
2023-03-03T16:07:04.055Z,-1.71
2023-03-03T16:10:14.463Z,-1.66
2023-03-03T16:13:28.087Z,-1.75
2023-03-03T16:16:38.941Z,-1.75
2023-03-03T16:19:42.522Z,-1.78
2023-03-03T16:22:36.775Z,-1.89
2023-03-03T16:25:31.290Z,-1.96
2023-03-03T16:28:25.617Z,-2.13
2023-03-03T16:31:23.043Z,-2.23
2023-03-03T16:34:30.583Z,-2.12
2023-03-03T16:37:25.824Z,-2.30
2023-03-03T16:40:20.251Z,-2.46
2023-03-03T16:43:27.374Z,-2.49
2023-03-03T16:46:38.597Z,-2.41
2023-03-03T16:49:39.256Z,-2.30
2023-03-03T16:52:32.385Z,-2.29
2023-03-03T16:55:21.778Z,-2.21
2023-03-03T16:59:01.570Z,-2.20
2023-03-03T17:01:46.801Z,-2.28
2023-03-03T17:04:43.642Z,-2.21
2023-03-03T17:07:49.109Z,-2.16
2023-03-03T17:10:58.284Z,-2.31
2023-03-03T17:14:07.015Z,-2.30
2023-03-03T17:16:55.245Z,-2.02
2023-03-03T17:19:58.200Z,-1.73
2023-03-03T17:23:10.950Z,-1.61
2023-03-03T17:25:59.030Z,-1.60
2023-03-03T17:29:08.696Z,-1.54
2023-03-03T17:32:22.192Z,-1.33
2023-03-03T17:35:16.795Z,-1.21
2023-03-03T17:38:20.629Z,-1.11
2023-03-03T17:41:31.123Z,-1.26
2023-03-03T17:44:22.459Z,-1.19
2023-03-03T17:47:13.228Z,-1.09
2023-03-03T17:50:19.862Z,-0.97
2023-03-03T17:53:11.168Z,-0.96
2023-03-03T17:56:05.582Z,-1.02
2023-03-03T17:59:02.287Z,-1.19
2023-03-03T18:02:20.386Z,-0.81
2023-03-03T18:05:28.858Z,-0.73
2023-03-03T18:08:29.648Z,-0.68
2023-03-03T18:11:40.682Z,-0.58
2023-03-03T18:14:26.218Z,-0.52
2023-03-03T18:17:36.346Z,-0.45
2023-03-03T18:21:05.113Z,-0.32
2023-03-03T18:23:50.610Z,-0.29
2023-03-03T18:26:41.471Z,-0.22
2023-03-03T18:29:27.587Z,-0.34
2023-03-03T18:32:23.613Z,-0.38
2023-03-03T18:35:35.598Z,-0.25
2023-03-03T18:38:32.625Z,-0.29
2023-03-03T18:41:27.193Z,-0.23
2023-03-03T18:44:29.292Z,-0.13
2023-03-03T18:47:14.721Z,-0.13
2023-03-03T18:50:31.385Z,-0.28
2023-03-03T18:53:24.916Z,-0.31
2023-03-03T18:56:11.306Z,-0.24
2023-03-03T18:58:56.815Z,-0.22
2023-03-03T19:01:43.966Z,-0.14
2023-03-03T19:04:36.336Z,-0.09
2023-03-03T19:07:21.822Z,-0.14
2023-03-03T19:10:22.334Z,-0.54
2023-03-03T19:13:32.569Z,-0.49
2023-03-03T19:16:23.881Z,-0.67
2023-03-03T19:19:21.706Z,-0.79
2023-03-03T19:22:26.747Z,-0.68
2023-03-03T19:25:12.145Z,-0.97
2023-03-03T19:28:29.186Z,-0.85
2023-03-03T19:31:32.680Z,-1.01
2023-03-03T19:34:47.904Z,-1.00
2023-03-03T19:38:00.925Z,-1.16
2023-03-03T19:40:55.689Z,-1.27
2023-03-03T19:43:54.516Z,-1.74
2023-03-03T19:47:01.529Z,-1.86
2023-03-03T19:49:49.862Z,-1.69
2023-03-03T19:52:41.409Z,-1.72
2023-03-03T19:55:39.099Z,-1.79
2023-03-03T19:59:00.103Z,-1.86
2023-03-03T20:01:50.502Z,-2.54
2023-03-03T20:04:44.871Z,-1.96
2023-03-03T20:07:59.639Z,-1.67
2023-03-03T20:11:06.336Z,-1.50
2023-03-03T20:14:05.793Z,-1.10
2023-03-03T20:16:55.317Z,-1.24
2023-03-03T20:19:58.335Z,-1.61
2023-03-03T20:23:02.394Z,-1.32
2023-03-03T20:25:58.085Z,-1.55
2023-03-03T20:28:50.651Z,-1.55
2023-03-03T20:31:54.758Z,-1.85
2023-03-03T20:34:40.670Z,-1.43
2023-03-03T20:37:42.418Z,-1.24
2023-03-03T20:40:42.189Z,-1.00
2023-03-03T20:43:48.583Z,-0.87
2023-03-03T20:47:19.050Z,-0.74
2023-03-03T20:50:21.695Z,-0.97
2023-03-03T20:53:19.260Z,-0.60
2023-03-03T20:56:16.770Z,-0.55
2023-03-03T20:59:02.309Z,-0.51
2023-03-03T21:02:26.101Z,-0.51
2023-03-03T21:05:16.347Z,-0.47
2023-03-03T21:08:05.834Z,-0.50
2023-03-03T21:10:56.985Z,-0.53
2023-03-03T21:13:44.207Z,-0.57
2023-03-03T21:16:32.509Z,-0.54
2023-03-03T21:19:26.046Z,-0.62
2023-03-03T21:22:11.163Z,-0.82
2023-03-03T21:24:57.901Z,-0.70
2023-03-03T21:27:43.416Z,-0.65
2023-03-03T21:30:28.848Z,-1.02
2023-03-03T21:33:44.310Z,-0.55
2023-03-03T21:36:32.858Z,-0.46
2023-03-03T21:39:32.720Z,-0.50
2023-03-03T21:42:39.284Z,-0.54
2023-03-03T21:45:25.253Z,-0.64
2023-03-03T21:48:10.868Z,-0.77
2023-03-03T21:50:56.107Z,-0.56
2023-03-03T21:53:43.068Z,-0.65
2023-03-03T21:56:28.382Z,-0.50
2023-03-03T21:59:14.305Z,-0.47
2023-03-03T22:01:59.988Z,-0.44
2023-03-03T22:04:45.426Z,-0.44
2023-03-03T22:07:31.016Z,-0.64
2023-03-03T22:10:16.482Z,-0.81
2023-03-03T22:13:02.043Z,-0.77
2023-03-03T22:15:48.350Z,-0.93
2023-03-03T22:18:33.818Z,-0.81
2023-03-03T22:21:19.270Z,-0.67
2023-03-03T22:24:05.477Z,-0.61
2023-03-03T22:26:50.855Z,-0.59
2023-03-03T22:29:36.039Z,-0.58
2023-03-03T22:32:21.508Z,-0.53
2023-03-03T22:35:07.992Z,-0.56
2023-03-03T22:37:53.256Z,-0.70
2023-03-03T22:40:38.770Z,-0.60
2023-03-03T22:43:24.309Z,-0.61
2023-03-03T22:46:09.799Z,-0.74
2023-03-03T22:48:55.504Z,-0.69
2023-03-03T22:51:40.593Z,-0.63
2023-03-03T22:54:26.266Z,-1.09
2023-03-03T22:57:11.398Z,-1.29
2023-03-03T22:59:56.955Z,-0.71
2023-03-03T23:02:42.331Z,-0.81
2023-03-03T23:05:27.665Z,-0.89
2023-03-03T23:08:15.340Z,-1.32
2023-03-03T23:11:00.901Z,-0.78
2023-03-03T23:13:46.312Z,-0.67
2023-03-03T23:16:31.705Z,-1.01
2023-03-03T23:19:17.238Z,-0.81
2023-03-03T23:22:02.770Z,-1.03
2023-03-03T23:24:47.958Z,-0.66
2023-03-03T23:27:33.824Z,-0.77
2023-03-03T23:30:20.798Z,-0.86
2023-03-03T23:33:06.345Z,-0.78
2023-03-03T23:35:52.161Z,-0.88
2023-03-03T23:38:37.329Z,-0.78
2023-03-03T23:41:22.832Z,-1.11
2023-03-03T23:44:08.355Z,-0.69
2023-03-03T23:46:53.737Z,-1.03
2023-03-03T23:49:39.167Z,-1.06
2023-03-03T23:52:24.500Z,-1.06
2023-03-03T23:55:09.944Z,-0.96
2023-03-03T23:57:55.500Z,-1.01
